Time;durP1;ratioP1;P1;durP2;ratioP2;P2;SDS_P1;SDS_P2;PMS_P1;PMS_P2;Temp;Humidity;BMP_temperature;BMP_pressure;BME280_temperature;BME280_humidity;BME280_pressure;Samples;Min_cycle;Max_cycle;Signal;HPM_P1;HPM_P2
2022/01/07 00:01:20;;;;;;;0.50;0.50;;;;;;;-0.35;100.00;100090.06;5020665;28;20041;-83
2022/01/07 00:03:46;;;;;;;0.50;0.50;;;;;;;-0.22;100.00;100094.22;5047371;28;20044;-82
2022/01/07 00:06:12;;;;;;;0.50;0.50;;;;;;;-0.07;100.00;100102.75;5043832;28;20407;-85
2022/01/07 00:08:37;;;;;;;0.50;0.50;;;;;;;0.13;100.00;100079.13;5022773;28;20690;-83
2022/01/07 00:11:03;;;;;;;0.50;0.50;;;;;;;0.14;100.00;100049.09;5039196;28;20112;-84
2022/01/07 00:13:29;;;;;;;0.50;0.50;;;;;;;0.41;100.00;100083.81;5067895;28;20463;-84
2022/01/07 00:15:55;;;;;;;0.50;0.50;;;;;;;0.57;100.00;100101.06;5030554;28;20040;-81
2022/01/07 00:18:21;;;;;;;0.63;0.55;;;;;;;0.70;100.00;100109.66;5041813;28;20029;-84
2022/01/07 00:20:47;;;;;;;0.57;0.57;;;;;;;0.73;100.00;100095.34;5027454;28;20025;-83
2022/01/07 00:23:13;;;;;;;0.50;0.50;;;;;;;0.61;100.00;100100.69;5027440;28;20029;-82
2022/01/07 00:25:38;;;;;;;0.50;0.50;;;;;;;0.61;100.00;100123.69;5048314;28;20026;-85
2022/01/07 00:28:04;;;;;;;1.10;0.60;;;;;;;0.60;100.00;100130.75;5037239;28;20125;-86
2022/01/07 00:30:30;;;;;;;0.50;0.50;;;;;;;0.55;100.00;100116.22;5029367;28;20043;-84
2022/01/07 00:32:56;;;;;;;0.50;0.50;;;;;;;0.50;100.00;100121.06;5055836;28;20029;-82
2022/01/07 00:35:22;;;;;;;0.50;0.50;;;;;;;0.33;100.00;100109.22;5028855;28;20033;-83
2022/01/07 00:37:48;;;;;;;0.50;0.50;;;;;;;0.25;100.00;100104.56;5042580;28;21244;-82
2022/01/07 00:40:17;;;;;;;0.57;0.50;;;;;;;0.28;100.00;100111.41;5013361;28;20105;-83
2022/01/07 00:42:43;;;;;;;0.50;0.50;;;;;;;0.28;100.00;100119.34;5048520;28;20032;-84
2022/01/07 00:45:09;;;;;;;0.43;0.43;;;;;;;0.23;100.00;100125.00;5027083;28;20043;-85
2022/01/07 00:47:35;;;;;;;1.17;0.60;;;;;;;0.25;100.00;100132.81;5042447;28;20752;-82
2022/01/07 00:50:01;;;;;;;0.93;0.70;;;;;;;0.29;100.00;100123.66;5032482;28;20044;-87
2022/01/07 00:52:27;;;;;;;0.50;0.50;;;;;;;0.29;100.00;100118.38;5041873;28;20036;-83
2022/01/07 00:54:52;;;;;;;0.68;0.52;;;;;;;0.39;100.00;100112.19;5031412;28;20037;-81
2022/01/07 00:57:18;;;;;;;1.38;0.65;;;;;;;0.47;100.00;100090.41;5013197;28;20032;-84
2022/01/07 00:59:46;;;;;;;0.60;0.60;;;;;;;0.67;100.00;100080.00;5049227;28;20093;-82
2022/01/07 01:02:13;;;;;;;0.50;0.50;;;;;;;0.79;100.00;100093.00;5045917;28;20044;-85
2022/01/07 01:04:39;;;;;;;0.50;0.50;;;;;;;0.85;100.00;100078.44;5037698;28;20052;-82
2022/01/07 01:07:04;;;;;;;0.50;0.50;;;;;;;0.93;100.00;100093.63;5012013;28;20044;-84
2022/01/07 01:09:30;;;;;;;0.50;0.50;;;;;;;1.02;100.00;100119.34;5009154;28;20043;-83
2022/01/07 01:11:57;;;;;;;0.50;0.50;;;;;;;0.97;100.00;100116.25;5049378;28;20076;-82
2022/01/07 01:14:23;;;;;;;0.50;0.50;;;;;;;0.80;100.00;100073.53;5015628;28;20037;-86
2022/01/07 01:16:51;;;;;;;0.68;0.68;;;;;;;0.85;100.00;100111.03;5037878;28;20044;-82
2022/01/07 01:19:17;;;;;;;1.48;0.73;;;;;;;0.75;100.00;100109.28;5046331;28;20029;-83
2022/01/07 01:21:44;;;;;;;0.50;0.50;;;;;;;0.64;100.00;100126.91;5032293;28;20037;-84
2022/01/07 01:24:10;;;;;;;0.50;0.50;;;;;;;0.62;100.00;100122.69;5013571;28;20028;-82
2022/01/07 01:26:35;;;;;;;0.50;0.50;;;;;;;0.58;100.00;100118.63;5050938;28;20040;-83
2022/01/07 01:29:01;;;;;;;3.35;0.77;;;;;;;0.66;100.00;100118.81;5039875;28;20032;-87
2022/01/07 01:31:30;;;;;;;0.50;0.50;;;;;;;0.68;100.00;100116.06;5028998;28;20155;-84
2022/01/07 01:33:55;;;;;;;1.30;1.30;;;;;;;0.63;100.00;100106.69;5023199;28;20127;-85
2022/01/07 01:36:21;;;;;;;0.50;0.50;;;;;;;0.61;100.00;100118.38;5044628;28;20606;-87
2022/01/07 01:38:47;;;;;;;0.50;0.50;;;;;;;0.49;100.00;100103.53;5035197;28;20047;-85
2022/01/07 01:41:12;;;;;;;0.50;0.50;;;;;;;0.42;100.00;100098.75;5028522;28;20039;-83
2022/01/07 01:43:38;;;;;;;0.50;0.50;;;;;;;0.34;100.00;100106.44;5008699;28;20033;-81
2022/01/07 01:46:04;;;;;;;0.50;0.50;;;;;;;0.34;100.00;100105.63;5045051;28;20037;-84
2022/01/07 01:48:30;;;;;;;0.50;0.50;;;;;;;0.35;100.00;100105.50;5007944;28;20506;-83
2022/01/07 01:50:56;;;;;;;0.77;0.77;;;;;;;0.36;100.00;100091.28;5039645;28;20045;-84
2022/01/07 01:53:24;;;;;;;0.50;0.50;;;;;;;0.37;100.00;100084.19;5046249;28;20502;-82
2022/01/07 01:55:50;;;;;;;0.50;0.50;;;;;;;0.46;100.00;100098.50;5043512;28;20036;-82
2022/01/07 01:58:16;;;;;;;0.50;0.50;;;;;;;0.54;100.00;100094.22;5018925;28;20037;-84
2022/01/07 02:00:41;;;;;;;0.50;0.50;;;;;;;0.56;100.00;100102.06;5032130;28;20432;-82
2022/01/07 02:03:07;;;;;;;0.40;0.40;;;;;;;0.62;100.00;100098.88;5048049;28;20036;-83
2022/01/07 02:05:33;;;;;;;0.50;0.50;;;;;;;0.73;100.00;100093.53;5015201;28;20055;-82
2022/01/07 02:07:59;;;;;;;0.40;0.40;;;;;;;0.73;100.00;100080.28;5031417;28;20033;-85
2022/01/07 02:10:25;;;;;;;0.50;0.50;;;;;;;0.67;100.00;100087.94;5030241;28;20064;-84
2022/01/07 02:12:51;;;;;;;0.50;0.50;;;;;;;0.58;100.00;100076.28;5034579;28;20082;-85
2022/01/07 02:15:18;;;;;;;0.50;0.50;;;;;;;0.47;100.00;100079.00;5030967;28;20033;-82
2022/01/07 02:17:46;;;;;;;0.50;0.50;;;;;;;0.54;100.00;100074.88;5047107;28;20037;-81
2022/01/07 02:20:15;;;;;;;0.50;0.50;;;;;;;0.70;100.00;100107.03;5032584;28;20491;-83
2022/01/07 02:22:41;;;;;;;0.80;0.80;;;;;;;0.82;100.00;100098.06;5011967;28;20037;-86
2022/01/07 02:25:07;;;;;;;13.45;1.73;;;;;;;1.03;100.00;100105.13;5038896;28;20360;-83
2022/01/07 02:27:40;;;;;;;17.00;1.13;;;;;;;1.27;100.00;100107.47;5009424;28;20044;-85
2022/01/07 02:30:09;;;;;;;2.53;0.93;;;;;;;1.44;100.00;100098.94;5044188;28;20054;-85
2022/01/07 02:32:35;;;;;;;2.40;0.50;;;;;;;1.43;100.00;100091.97;5026059;28;20441;-87
2022/01/07 02:35:04;;;;;;;2.25;1.00;;;;;;;1.52;100.00;100109.69;5031142;28;20506;-85
2022/01/07 02:37:31;;;;;;;11.77;2.30;;;;;;;1.68;100.00;100169.31;5039000;28;20425;-83
2022/01/07 02:39:57;;;;;;;15.23;2.15;;;;;;;1.62;100.00;100178.66;5032052;28;20471;-86
2022/01/07 02:42:25;;;;;;;9.57;1.60;;;;;;;1.41;100.00;100199.03;5056053;28;20037;-85
2022/01/07 02:44:51;;;;;;;6.57;1.60;;;;;;;1.16;100.00;100209.03;5028640;28;20119;-83
2022/01/07 02:47:17;;;;;;;3.63;1.10;;;;;;;0.96;100.00;100191.34;5045285;28;20057;-84
2022/01/07 02:49:43;;;;;;;3.90;1.00;;;;;;;0.92;100.00;100206.63;5030876;28;20840;-85
2022/01/07 02:52:08;;;;;;;2.53;0.90;;;;;;;0.88;100.00;100199.94;5009240;28;20033;-84
2022/01/07 02:54:34;;;;;;;2.63;0.93;;;;;;;0.80;100.00;100200.56;5046238;28;20028;-85
2022/01/07 02:57:00;;;;;;;2.50;0.88;;;;;;;0.64;100.00;100197.50;5015763;28;20045;-85
2022/01/07 02:59:25;;;;;;;1.85;0.90;;;;;;;0.56;100.00;100210.50;5045474;28;20025;-85
2022/01/07 03:01:51;;;;;;;0.50;0.50;;;;;;;0.54;100.00;100218.56;5023484;28;20135;-84
2022/01/07 03:04:17;;;;;;;0.40;0.40;;;;;;;0.49;100.00;100222.56;5039539;28;20078;-86
2022/01/07 03:06:43;;;;;;;1.20;0.60;;;;;;;0.50;100.00;100221.56;5007379;28;20036;-86
2022/01/07 03:09:09;;;;;;;0.40;0.40;;;;;;;0.56;100.00;100226.38;5040341;28;20033;-84
2022/01/07 03:11:35;;;;;;;0.60;0.60;;;;;;;0.58;100.00;100229.72;5019337;28;20541;-85
2022/01/07 03:14:00;;;;;;;1.65;0.80;;;;;;;0.58;100.00;100192.69;5047162;28;20531;-85
2022/01/07 03:16:26;;;;;;;2.55;0.88;;;;;;;0.63;100.00;100193.16;5042694;28;20033;-82
2022/01/07 03:18:52;;;;;;;5.80;1.25;;;;;;;0.63;100.00;100169.34;5017788;28;20382;-83
2022/01/07 03:21:18;;;;;;;3.63;0.85;;;;;;;0.67;100.00;100191.94;5026860;28;20041;-84
2022/01/07 03:23:44;;;;;;;0.50;0.50;;;;;;;0.71;100.00;100174.00;5011670;28;20823;-87
2022/01/07 03:26:10;;;;;;;0.50;0.50;;;;;;;0.80;100.00;100187.31;5050123;28;20041;-85
2022/01/07 03:28:36;;;;;;;0.50;0.50;;;;;;;0.88;100.00;100179.59;5015588;28;20032;-85
2022/01/07 03:31:02;;;;;;;0.50;0.50;;;;;;;0.86;100.00;100197.38;5016942;28;20045;-86
2022/01/07 03:33:28;;;;;;;0.40;0.40;;;;;;;0.81;100.00;100190.81;5043603;28;20033;-86
2022/01/07 03:35:54;;;;;;;0.50;0.50;;;;;;;0.65;100.00;100199.16;5039222;28;20045;-87
2022/01/07 03:38:20;;;;;;;0.50;0.50;;;;;;;0.49;100.00;100199.56;5024637;28;20044;-87
2022/01/07 03:40:47;;;;;;;0.40;0.40;;;;;;;0.32;100.00;100194.81;5018057;28;20110;-88
2022/01/07 03:43:13;;;;;;;0.50;0.50;;;;;;;0.15;100.00;100193.53;5042019;28;20390;-84
2022/01/07 03:45:39;;;;;;;0.40;0.40;;;;;;;0.05;100.00;100196.06;5046715;28;20041;-83
2022/01/07 03:48:05;;;;;;;0.50;0.50;;;;;;;0.06;100.00;100189.00;5046739;28;20033;-83
2022/01/07 03:50:30;;;;;;;0.50;0.50;;;;;;;0.05;100.00;100180.19;5047875;28;20056;-88
2022/01/07 03:52:57;;;;;;;0.50;0.50;;;;;;;-0.02;100.00;100168.44;5021372;28;20039;-86
2022/01/07 03:55:26;;;;;;;0.50;0.50;;;;;;;0.09;100.00;100180.81;5049930;28;20108;-85
2022/01/07 03:57:52;;;;;;;0.50;0.50;;;;;;;0.13;100.00;100179.59;5054145;28;20032;-85
2022/01/07 04:00:32;;;;;;;0.50;0.50;;;;;;;0.04;100.00;100164.47;5046461;28;20025;-84
2022/01/07 04:02:58;;;;;;;0.50;0.50;;;;;;;0.13;100.00;100179.59;5048870;28;20786;-86
2022/01/07 04:05:24;;;;;;;0.50;0.50;;;;;;;0.23;100.00;100204.31;5055800;28;20037;-82
2022/01/07 04:07:50;;;;;;;0.50;0.50;;;;;;;0.34;100.00;100191.06;5049987;28;20060;-85
2022/01/07 04:10:16;;;;;;;0.50;0.50;;;;;;;0.42;100.00;100171.94;5033420;28;20471;-83
2022/01/07 04:12:41;;;;;;;0.40;0.40;;;;;;;0.49;100.00;100172.28;5015013;28;20041;-85
2022/01/07 04:15:10;;;;;;;0.55;0.55;;;;;;;0.57;100.00;100165.41;5053226;28;20539;-85
2022/01/07 04:17:43;;;;;;;0.50;0.50;;;;;;;0.81;100.00;100214.63;5049668;28;20124;-82
2022/01/07 04:20:12;;;;;;;0.50;0.50;;;;;;;0.85;100.00;100230.13;5047627;28;20025;-84
2022/01/07 04:22:38;;;;;;;0.50;0.50;;;;;;;0.74;100.00;100224.03;5029338;28;20136;-84
2022/01/07 04:25:07;;;;;;;0.40;0.40;;;;;;;0.70;100.00;100233.19;5023000;28;20135;-82
2022/01/07 04:27:33;;;;;;;0.40;0.40;;;;;;;0.61;100.00;100232.16;5017211;28;20544;-86
2022/01/07 04:29:58;;;;;;;0.50;0.50;;;;;;;0.44;100.00;100229.03;5034395;28;20032;-84
2022/01/07 04:32:24;;;;;;;4.25;0.70;;;;;;;0.17;100.00;100205.66;5034543;28;20062;-84
2022/01/07 04:34:50;;;;;;;0.50;0.50;;;;;;;0.36;100.00;100222.69;5031869;28;20134;-85
2022/01/07 04:37:16;;;;;;;0.82;0.80;;;;;;;0.44;100.00;100212.34;5040681;28;20022;-86
2022/01/07 04:39:42;;;;;;;0.43;0.43;;;;;;;0.48;100.00;100212.91;5033999;28;20112;-84
2022/01/07 04:42:08;;;;;;;8.05;1.85;;;;;;;0.68;100.00;100222.72;5031206;28;20111;-81
2022/01/07 04:44:40;;;;;;;0.57;0.57;;;;;;;0.76;100.00;100207.06;5046551;28;20021;-87
2022/01/07 04:47:07;;;;;;;0.50;0.50;;;;;;;0.85;100.00;100213.41;5023744;28;21830;-83
2022/01/07 04:49:32;;;;;;;0.65;0.60;;;;;;;0.94;100.00;100238.28;5041756;28;20047;-88
2022/01/07 04:51:58;;;;;;;6.65;0.88;;;;;;;1.08;100.00;100248.56;5040176;28;20052;-84
2022/01/07 04:54:24;;;;;;;1.45;0.60;;;;;;;1.19;100.00;100267.06;5035037;28;20043;-84
2022/01/07 04:56:49;;;;;;;7.28;0.80;;;;;;;1.31;100.00;100268.66;5031184;28;20132;-85
2022/01/07 04:59:15;;;;;;;9.63;2.08;;;;;;;1.30;100.00;100296.13;5050340;28;20032;-84
2022/01/07 05:01:40;;;;;;;9.48;1.85;;;;;;;1.13;100.00;100250.81;5030877;28;20187;-86
2022/01/07 05:04:06;;;;;;;7.82;1.73;;;;;;;0.93;100.00;100258.63;5028304;28;22153;-86
2022/01/07 05:06:44;;;;;;;2.28;1.40;;;;;;;0.62;100.00;100221.41;5019729;28;20048;-85
2022/01/07 05:09:13;;;;;;;1.08;0.90;;;;;;;0.36;100.00;100189.16;5057445;28;20033;-85
2022/01/07 05:11:39;;;;;;;0.50;0.50;;;;;;;0.19;100.00;100230.19;5045313;28;20044;-85
2022/01/07 05:14:05;;;;;;;0.50;0.50;;;;;;;0.01;100.00;100222.88;5027920;28;20033;-85
2022/01/07 05:16:30;;;;;;;1.48;0.95;;;;;;;-0.09;100.00;100220.94;5015502;28;20049;-84
2022/01/07 05:18:59;;;;;;;0.50;0.50;;;;;;;-0.28;100.00;100205.69;5021619;28;20092;-86
2022/01/07 05:21:27;;;;;;;0.50;0.50;;;;;;;-0.52;100.00;100205.78;5013863;28;20387;-84
2022/01/07 05:23:53;;;;;;;0.50;0.50;;;;;;;-0.53;100.00;100219.97;5013688;28;20040;-83
2022/01/07 05:26:19;;;;;;;0.40;0.40;;;;;;;-0.59;100.00;100228.34;5044536;28;20024;-85
2022/01/07 05:28:45;;;;;;;0.50;0.50;;;;;;;-0.65;100.00;100215.63;5010170;28;20426;-84
2022/01/07 05:31:10;;;;;;;0.50;0.50;;;;;;;-0.68;100.00;100232.53;5024056;28;20025;-85
2022/01/07 05:33:36;;;;;;;0.40;0.40;;;;;;;-0.77;100.00;100230.56;5039306;28;20024;-88
2022/01/07 05:36:02;;;;;;;0.50;0.50;;;;;;;-0.69;100.00;100243.19;5013145;28;20221;-85
2022/01/07 05:38:27;;;;;;;0.40;0.40;;;;;;;-0.72;100.00;100254.00;5056092;28;20530;-85
2022/01/07 05:40:53;;;;;;;0.40;0.40;;;;;;;-0.60;100.00;100262.81;5013307;28;20129;-86
2022/01/07 05:43:19;;;;;;;0.50;0.50;;;;;;;-0.56;100.00;100254.50;5030524;28;20053;-85
2022/01/07 05:45:45;;;;;;;0.50;0.50;;;;;;;-0.37;100.00;100272.47;5031453;28;20044;-87
2022/01/07 05:48:12;;;;;;;0.50;0.50;;;;;;;-0.24;100.00;100264.41;5051703;28;20466;-85
2022/01/07 05:50:38;;;;;;;0.50;0.50;;;;;;;-0.10;100.00;100266.00;5037218;28;20127;-85
2022/01/07 05:53:04;;;;;;;0.50;0.50;;;;;;;-0.02;100.00;100259.16;5045022;28;20052;-83
2022/01/07 05:55:29;;;;;;;0.50;0.50;;;;;;;0.07;100.00;100256.75;5016491;28;20131;-86
2022/01/07 05:57:55;;;;;;;0.50;0.50;;;;;;;0.04;100.00;100241.97;5033427;28;20067;-89
2022/01/07 06:00:21;;;;;;;0.50;0.50;;;;;;;0.07;100.00;100239.06;5045446;28;20042;-85
2022/01/07 06:02:47;;;;;;;0.50;0.50;;;;;;;0.01;100.00;100241.38;5013127;28;20091;-88
2022/01/07 06:05:12;;;;;;;0.50;0.50;;;;;;;-0.02;100.00;100263.59;5043778;28;20387;-84
2022/01/07 06:07:38;;;;;;;0.50;0.50;;;;;;;-0.07;100.00;100261.31;5042813;28;20128;-86
2022/01/07 06:10:06;;;;;;;0.50;0.50;;;;;;;-0.11;100.00;100257.19;5012073;28;20440;-87
2022/01/07 06:12:32;;;;;;;0.50;0.50;;;;;;;-0.15;100.00;100261.06;5011322;28;20090;-85
2022/01/07 06:14:58;;;;;;;0.45;0.45;;;;;;;-0.19;100.00;100259.59;5045701;28;20025;-84
2022/01/07 06:17:23;;;;;;;0.50;0.50;;;;;;;-0.05;100.00;100253.28;5040107;28;20041;-86
2022/01/07 06:19:49;;;;;;;0.60;0.60;;;;;;;-0.01;100.00;100244.97;5042899;28;20043;-85
2022/01/07 06:22:15;;;;;;;0.50;0.50;;;;;;;-0.01;100.00;100231.75;5037548;28;20075;-85
2022/01/07 06:24:40;;;;;;;0.50;0.50;;;;;;;-0.01;100.00;100231.75;5045599;28;20067;-85
2022/01/07 06:27:06;;;;;;;0.50;0.50;;;;;;;0.01;100.00;100246.66;5028887;28;20059;-85
2022/01/07 06:29:32;;;;;;;0.50;0.50;;;;;;;-0.09;100.00;100236.78;5018556;28;20086;-86
2022/01/07 06:31:58;;;;;;;0.50;0.50;;;;;;;-0.07;100.00;100250.72;5010391;28;20067;-83
2022/01/07 06:34:23;;;;;;;0.40;0.40;;;;;;;-0.09;100.00;100243.88;5023300;28;20175;-85
2022/01/07 06:36:50;;;;;;;0.50;0.50;;;;;;;-0.21;100.00;100224.56;5003766;28;20491;-85
2022/01/07 06:39:18;;;;;;;0.40;0.40;;;;;;;-0.14;100.00;100235.47;5041765;28;20041;-81
2022/01/07 06:41:46;;;;;;;0.50;0.50;;;;;;;-0.13;100.00;100234.50;5043700;28;20029;-84
2022/01/07 06:44:13;;;;;;;0.47;0.47;;;;;;;-0.10;100.00;100235.13;5037299;28;20033;-83
2022/01/07 06:46:39;;;;;;;0.50;0.50;;;;;;;-0.07;100.00;100234.88;5053567;28;20029;-85
2022/01/07 06:49:04;;;;;;;0.50;0.50;;;;;;;-0.10;100.00;100227.19;5053164;28;20093;-83
2022/01/07 06:51:31;;;;;;;0.50;0.50;;;;;;;-0.04;100.00;100228.50;5034050;28;20065;-86
2022/01/07 06:53:58;;;;;;;0.50;0.50;;;;;;;-0.05;100.00;100224.19;5022790;28;20037;-85
2022/01/07 06:56:23;;;;;;;0.50;0.50;;;;;;;-0.02;100.00;100224.78;5046256;28;20037;-86
2022/01/07 06:58:49;;;;;;;0.50;0.50;;;;;;;0.04;100.00;100215.53;5015491;28;20041;-83
2022/01/07 07:01:15;;;;;;;0.50;0.50;;;;;;;0.12;100.00;100220.22;5018811;28;20037;-84
2022/01/07 07:03:41;;;;;;;0.50;0.50;;;;;;;0.22;100.00;100221.16;5051372;28;20544;-85
2022/01/07 07:06:08;;;;;;;0.50;0.50;;;;;;;0.28;100.00;100220.66;5025465;28;20041;-81
2022/01/07 07:08:33;;;;;;;0.40;0.40;;;;;;;0.36;100.00;100231.47;5046545;28;20081;-85
2022/01/07 07:10:59;;;;;;;0.55;0.55;;;;;;;0.37;100.00;100227.88;5018005;28;20041;-86
2022/01/07 07:13:25;;;;;;;0.47;0.47;;;;;;;0.42;100.00;100220.41;5019390;28;20043;-83
2022/01/07 07:15:50;;;;;;;0.40;0.40;;;;;;;0.50;100.00;100234.81;5014390;28;20033;-84
2022/01/07 07:18:17;;;;;;;0.40;0.40;;;;;;;0.58;100.00;100240.31;5028541;28;20037;-86
2022/01/07 07:20:43;;;;;;;0.50;0.50;;;;;;;0.65;100.00;100247.63;5045957;28;20029;-85
2022/01/07 07:23:09;;;;;;;0.50;0.50;;;;;;;0.73;100.00;100262.88;5034333;28;20361;-84
2022/01/07 07:25:35;;;;;;;0.50;0.50;;;;;;;0.78;100.00;100268.63;5031534;28;20452;-85
2022/01/07 07:28:01;;;;;;;0.80;0.70;;;;;;;0.89;100.00;100254.53;5010324;28;20037;-85
2022/01/07 07:30:34;;;;;;;0.50;0.50;;;;;;;1.08;100.00;100259.97;5065734;28;20115;-87
2022/01/07 07:33:17;;;;;;;9.40;2.33;;;;;;;1.29;100.00;100257.34;5045073;28;20036;-85
2022/01/07 07:38:11;;;;;;;12.18;2.92;;;;;;;1.64;100.00;100239.44;5049395;28;20033;-85
2022/01/07 07:40:37;;;;;;;12.25;2.17;;;;;;;1.80;100.00;100252.22;5034333;28;20536;-84
2022/01/07 07:43:03;;;;;;;9.38;1.42;;;;;;;1.76;100.00;100233.94;5022798;28;20033;-85
2022/01/07 07:45:28;;;;;;;0.60;0.60;;;;;;;1.71;100.00;100230.84;5030053;28;20029;-86
2022/01/07 07:47:54;;;;;;;1.88;0.85;;;;;;;1.70;100.00;100226.53;5042331;28;20041;-84
2022/01/07 07:50:20;;;;;;;0.60;0.60;;;;;;;1.65;100.00;100230.53;5023300;28;20184;-84
2022/01/07 07:52:46;;;;;;;0.50;0.50;;;;;;;1.47;100.00;100188.75;5018459;28;20127;-84
2022/01/07 07:55:11;;;;;;;0.43;0.43;;;;;;;1.61;100.00;100208.75;5015528;28;20044;-85
2022/01/07 07:57:37;;;;;;;0.50;0.50;;;;;;;1.63;100.00;100235.97;5017917;28;20029;-82
2022/01/07 08:00:05;;;;;;;0.50;0.50;;;;;;;1.62;100.00;100231.66;5028648;28;20606;-82
2022/01/07 08:02:31;;;;;;;0.50;0.50;;;;;;;1.59;100.00;100233.69;5045999;28;20522;-86
2022/01/07 08:04:57;;;;;;;0.50;0.50;;;;;;;1.58;100.00;100232.88;5047682;28;20037;-85
2022/01/07 08:07:23;;;;;;;0.50;0.50;;;;;;;1.57;100.00;100225.06;5032389;28;20119;-84
2022/01/07 08:09:50;;;;;;;0.40;0.40;;;;;;;1.45;100.00;100205.72;5019704;28;20534;-85
2022/01/07 08:12:23;;;;;;;0.50;0.50;;;;;;;1.56;100.00;100223.38;5048290;28;20487;-83
2022/01/07 08:17:33;;;;;;;0.50;0.50;;;;;;;1.56;100.00;100240.09;5047970;28;20091;-81
2022/01/07 08:19:59;;;;;;;0.50;0.50;;;;;;;1.47;100.00;100223.19;5037048;28;20053;-84
2022/01/07 08:22:25;;;;;;;0.40;0.40;;;;;;;1.59;100.00;100255.75;5032967;28;20630;-83
2022/01/07 08:24:50;;;;;;;0.50;0.50;;;;;;;1.57;100.00;100243.59;5012955;28;20033;-82
2022/01/07 08:27:16;;;;;;;0.50;0.50;;;;;;;1.60;100.00;100236.22;5048372;28;20031;-83
2022/01/07 08:29:42;;;;;;;0.40;0.40;;;;;;;1.62;100.00;100229.00;5031471;28;20040;-83
2022/01/07 08:34:55;;;;;;;0.50;0.50;;;;;;;1.67;100.00;100231.25;5035681;28;20124;-80
2022/01/07 08:37:27;;;;;;;0.60;0.60;;;;;;;1.71;100.00;100235.31;5031495;28;20033;-84
2022/01/07 08:39:54;;;;;;;0.50;0.50;;;;;;;1.75;100.00;100236.75;5015683;28;20039;-86
2022/01/07 08:42:21;;;;;;;0.40;0.40;;;;;;;1.83;100.00;100223.66;5049426;28;20541;-84
2022/01/07 08:44:47;;;;;;;0.50;0.50;;;;;;;2.04;100.00;100236.88;5017716;28;20044;-84
2022/01/07 08:47:13;;;;;;;0.50;0.50;;;;;;;2.09;100.00;100242.63;5011961;28;20039;-83
2022/01/07 08:49:39;;;;;;;0.40;0.40;;;;;;;2.11;100.00;100253.91;5017029;28;20123;-83
2022/01/07 08:52:05;;;;;;;0.40;0.40;;;;;;;2.10;100.00;100248.75;5048774;28;20441;-82
2022/01/07 08:54:30;;;;;;;0.60;0.60;;;;;;;2.15;100.00;100259.81;5031432;28;20088;-83
2022/01/07 08:56:56;;;;;;;0.50;0.50;;;;;;;2.15;100.00;100259.81;5016587;28;20401;-85
2022/01/07 08:59:22;;;;;;;0.50;0.50;;;;;;;2.18;100.00;100256.88;5031738;28;20033;-81
2022/01/07 09:01:47;;;;;;;0.50;0.50;;;;;;;2.22;100.00;100263.56;5015424;28;20083;-84
2022/01/07 09:04:13;;;;;;;0.40;0.40;;;;;;;2.28;100.00;100267.53;5050106;28;20051;-85
2022/01/07 09:06:39;;;;;;;0.50;0.50;;;;;;;2.31;100.00;100256.66;5033533;28;20044;-84
2022/01/07 09:09:04;;;;;;;0.50;0.50;;;;;;;2.47;100.00;100256.97;5015259;28;20048;-84
2022/01/07 09:11:30;;;;;;;0.50;0.50;;;;;;;2.52;100.00;100262.69;5014267;28;20385;-84
2022/01/07 09:13:58;;;;;;;0.80;0.52;;;;;;;2.60;100.00;100259.38;5020139;28;20049;-82
2022/01/07 09:16:25;;;;;;;0.88;0.88;;;;;;;2.66;100.00;100250.03;5048872;28;20067;-85
2022/01/07 09:18:51;;;;;;;0.50;0.50;;;;;;;2.67;100.00;100243.72;5048192;28;20037;-83
2022/01/07 09:21:18;;;;;;;0.50;0.50;;;;;;;2.72;100.00;100247.63;5030380;28;20033;-85
2022/01/07 09:23:43;;;;;;;0.50;0.50;;;;;;;2.73;100.00;100248.50;5052000;28;20037;-84
2022/01/07 09:26:10;;;;;;;0.40;0.40;;;;;;;2.80;100.00;100269.03;5035214;28;20035;-84
2022/01/07 09:28:36;;;;;;;0.50;0.50;;;;;;;2.81;100.00;100261.94;5041041;28;20037;-83
2022/01/07 09:31:02;;;;;;;0.40;0.40;;;;;;;2.80;100.00;100237.16;5046450;28;20040;-83
2022/01/07 09:33:28;;;;;;;0.50;0.50;;;;;;;2.86;100.00;100252.56;5029644;28;20025;-85
2022/01/07 09:35:53;;;;;;;0.50;0.50;;;;;;;2.91;100.00;100251.28;5048623;28;20037;-83
2022/01/07 09:38:21;;;;;;;0.50;0.50;;;;;;;2.92;100.00;100256.47;5032118;28;20386;-82
2022/01/07 09:40:47;;;;;;;0.50;0.50;;;;;;;2.94;100.00;100246.56;5046530;28;20041;-86
2022/01/07 09:43:14;;;;;;;0.40;0.40;;;;;;;3.02;100.00;100254.66;5015788;28;20048;-84
2022/01/07 09:45:39;;;;;;;0.50;0.50;;;;;;;3.04;100.00;100244.75;5048159;28;20395;-82
2022/01/07 09:48:08;;;;;;;0.50;0.50;;;;;;;3.01;100.00;100237.03;5013399;28;20041;-80
2022/01/07 09:50:34;;;;;;;0.50;0.50;;;;;;;3.02;100.00;100240.56;5027962;28;20028;-83
2022/01/07 09:53:12;;;;;;;0.47;0.47;;;;;;;3.13;100.00;100251.03;5042240;28;20510;-85
2022/01/07 09:55:38;;;;;;;0.50;0.50;;;;;;;3.18;100.00;100232.84;5040085;28;20033;-82
2022/01/07 09:58:05;;;;;;;0.50;0.50;;;;;;;3.24;100.00;100226.97;5047416;28;20028;-85
2022/01/07 10:00:42;;;;;;;0.43;0.43;;;;;;;3.38;100.00;100228.34;5036623;28;20033;-85
2022/01/07 10:03:13;;;;;;;0.50;0.50;;;;;;;3.44;100.00;100227.78;5044362;28;20025;-84
2022/01/07 10:05:44;;;;;;;0.50;0.50;;;;;;;3.52;100.00;100229.75;5031440;28;20055;-86
2022/01/07 10:08:18;;;;;;;0.60;0.60;;;;;;;3.52;100.00;100233.22;5031025;28;20059;-80
2022/01/07 10:10:43;;;;;;;;;;;;;;;3.58;100.00;100228.31;5048612;28;20044;-80
2022/01/07 10:13:09;;;;;;;0.50;0.50;;;;;;;3.57;100.00;100237.25;5023937;28;20265;-82
2022/01/07 10:15:41;;;;;;;0.50;0.50;;;;;;;3.63;100.00;100242.84;5038798;28;20028;-82
2022/01/07 10:18:12;;;;;;;0.40;0.40;;;;;;;3.69;100.00;100239.59;5011981;28;20366;-81
2022/01/07 10:20:40;;;;;;;0.50;0.50;;;;;;;3.78;100.00;100245.03;5045899;28;20032;-81
2022/01/07 10:23:08;;;;;;;0.50;0.50;;;;;;;3.81;100.00;100245.63;5032383;28;20417;-80
2022/01/07 10:25:36;;;;;;;0.50;0.50;;;;;;;3.86;100.00;100230.03;5016611;28;20475;-82
2022/01/07 10:28:10;;;;;;;0.50;0.50;;;;;;;3.96;100.00;100225.50;5048776;28;20033;-82
2022/01/07 10:30:39;;;;;;;0.40;0.40;;;;;;;4.07;100.00;100237.78;5028746;28;20409;-80
2022/01/07 10:33:25;;;;;;;0.50;0.50;;;;;;;4.15;100.00;100251.22;5030764;28;20052;-81
2022/01/07 10:36:13;;;;;;;0.50;0.50;;;;;;;4.18;100.00;100245.59;5046776;28;20069;-80
2022/01/07 10:38:52;;;;;;;0.57;0.57;;;;;;;4.24;100.00;100246.00;5017777;28;20048;-81
2022/01/07 10:41:18;;;;;;;0.50;0.50;;;;;;;4.32;100.00;100268.22;5012882;28;20033;-79
2022/01/07 10:43:44;;;;;;;0.50;0.50;;;;;;;4.28;100.00;100260.69;5014723;28;20475;-80
2022/01/07 10:46:27;;;;;;;0.60;0.60;;;;;;;4.30;100.00;100280.00;5015554;28;20035;-82
2022/01/07 10:48:57;;;;;;;0.50;0.50;;;;;;;4.40;100.00;100280.81;5051866;28;20487;-81
2022/01/07 10:51:44;;;;;;;0.50;0.50;;;;;;;4.52;100.00;100271.59;5033489;28;20037;-85
2022/01/07 10:54:10;;;;;;;0.50;0.50;;;;;;;4.81;100.00;100282.09;5033075;28;20056;-81
2022/01/07 10:56:41;;;;;;;0.52;0.52;;;;;;;4.90;100.00;100271.53;5035822;28;20047;-81
2022/01/07 10:59:13;;;;;;;0.50;0.50;;;;;;;5.15;100.00;100268.09;5052416;28;20519;-82
2022/01/07 11:01:56;;;;;;;0.50;0.50;;;;;;;5.42;100.00;100287.66;5052039;28;20037;-80
2022/01/07 11:04:26;;;;;;;0.50;0.50;;;;;;;5.26;100.00;100291.84;5053830;28;20029;-80
2022/01/07 11:06:55;;;;;;;0.50;0.50;;;;;;;5.18;100.00;100296.28;5050822;28;20040;-79
2022/01/07 11:09:20;;;;;;;0.50;0.50;;;;;;;5.10;100.00;100297.03;5051155;28;20025;-80
2022/01/07 11:11:58;;;;;;;0.50;0.50;;;;;;;5.00;100.00;100301.59;5020070;28;20120;-83
2022/01/07 11:14:27;;;;;;;0.50;0.50;;;;;;;4.88;100.00;100292.16;5049693;28;20028;-81
2022/01/07 11:16:54;;;;;;;0.50;0.50;;;;;;;4.89;100.00;100304.47;5051526;28;20044;-81
2022/01/07 11:19:23;;;;;;;0.57;0.57;;;;;;;5.05;100.00;100312.63;5057114;28;20029;-83
2022/01/07 11:21:51;;;;;;;0.50;0.50;;;;;;;5.29;100.00;100317.38;5056007;28;20474;-81
2022/01/07 11:24:36;;;;;;;0.50;0.50;;;;;;;5.53;100.00;100324.78;5046638;28;20056;-80
2022/01/07 11:27:25;;;;;;;0.52;0.52;;;;;;;5.39;100.00;100327.97;5048763;28;20352;-81
2022/01/07 11:29:59;;;;;;;0.60;0.60;;;;;;;5.31;100.00;100333.22;5048283;28;20032;-81
2022/01/07 11:32:25;;;;;;;1.73;0.90;;;;;;;5.37;100.00;100335.28;5041746;28;20403;-82